Tucson, AZ

2:39 PM MST on January 26, 2015 (GMT -0700)
Agua Caliente Park Area | Change Station
CLOSE
Current Station
Personal Weather Station
Location: Tucson, AZ
Elevation: 2760 ft
Nearby Weather Stations

Elev 2760 ft 32.29 °N, 110.73 °W | Updated 1 minute ago

Mostly Cloudy
Mostly Cloudy
64.6 °F
Feels Like 64.6 °F
N
0.0
Wind Variable Wind from WSW
Gusts 3.0 mph

Today
High -- | Low -- °F
--% Chance of Precip.
Yesterday
High -- | Low -- °F
Precip. -- in
7:20 AM 5:50 PM
Waxing Crescent, 47% visible
Pressure 30.05 in
Visibility 10.0 miles
Clouds Clear
Dew Point 39 °F
Humidity 21%
Rainfall 0.00 in
Snow Depth Not available.
UV 4 out of 12
Pollen 3.10 out of 12
Air Quality Not available.
Flu Activity Not available.
METAR KDMA 262058Z AUTO 13007KT 10SM CLR 17/05 A3012 RMK AO2 RAB1958E07DZB07E11 SLP176 P0000 60000 T01710046 57027 $

More Conditions Fewer Conditions

Pressure 30.05 in
Visibility 10.0 miles
Clouds Clear
Dew Point 39 °F
Humidity 21%
Rainfall 0.00 in
Snow Depth Not available.
UV 4 out of 12
Pollen 3.10 out of 12
Air Quality Not available.
Flu Activity Not available.
METAR KDMA 262058Z AUTO 13007KT 10SM CLR 17/05 A3012 RMK AO2 RAB1958E07DZB07E11 SLP176 P0000 60000 T01710046 57027 $

More Conditions Fewer Conditions

Nowcast | as of 1:58 PM MST on January 26, 2015

Scattered showers will continue to shift north across Southeast Arizona this afternoon. Rainfall amounts will generally tally less than 0.05 inches per hour.

×

10-Day Weather Forecast

Almanac

Astronomy

Jan. 26, 2015 Rise Set
Actual Time
Civil Twilight
Nautical Twilight
Astronomical Twilight
Moon
Length of Visible Light
Length of Day
Tomorrow will be .
, % of the Moon is Illuminated

Today's Extremes

State Highs State Lows

Community

WunderPhotos

Upload Photos

1,790,367 photos uploaded!

WunderBlogs® & News

Nearby

Air Quality

  Air Quality AQ Index Pollutant
Not available.

Snow Depth

Station Depth Elevation

Earthquake Activity

City Distance Mag. Time & Date
Minimum magnitude displayed is 2.5.

Coastal Water Temperatures

Place Temperature

Nearby Weather Stations